sensor_id;sensor_type;location;lat;lon;timestamp;P1;durP1;ratioP1;P2;durP2;ratioP2
85705;SDS011;76142;52.376;9.712;2024-01-30T00:00:23;23.98;;;10.98;;
85705;SDS011;76142;52.376;9.712;2024-01-30T00:02:49;17.75;;;10.10;;
85705;SDS011;76142;52.376;9.712;2024-01-30T00:05:15;19.25;;;10.43;;
85705;SDS011;76142;52.376;9.712;2024-01-30T00:07:41;18.80;;;10.80;;
85705;SDS011;76142;52.376;9.712;2024-01-30T00:10:06;16.13;;;10.57;;
85705;SDS011;76142;52.376;9.712;2024-01-30T00:12:32;19.60;;;10.57;;
85705;SDS011;76142;52.376;9.712;2024-01-30T00:14:58;19.30;;;10.52;;
85705;SDS011;76142;52.376;9.712;2024-01-30T00:17:24;20.02;;;10.80;;
85705;SDS011;76142;52.376;9.712;2024-01-30T00:19:51;19.42;;;11.50;;
85705;SDS011;76142;52.376;9.712;2024-01-30T00:22:17;22.52;;;11.38;;
85705;SDS011;76142;52.376;9.712;2024-01-30T00:24:42;23.05;;;11.63;;
85705;SDS011;76142;52.376;9.712;2024-01-30T00:27:08;19.88;;;10.27;;
85705;SDS011;76142;52.376;9.712;2024-01-30T00:29:34;19.67;;;11.40;;
85705;SDS011;76142;52.376;9.712;2024-01-30T00:32:01;16.90;;;10.18;;
85705;SDS011;76142;52.376;9.712;2024-01-30T00:34:26;18.65;;;10.80;;
85705;SDS011;76142;52.376;9.712;2024-01-30T00:36:52;18.88;;;11.20;;
85705;SDS011;76142;52.376;9.712;2024-01-30T00:39:18;21.25;;;11.38;;
85705;SDS011;76142;52.376;9.712;2024-01-30T00:41:44;19.92;;;10.57;;
85705;SDS011;76142;52.376;9.712;2024-01-30T00:44:10;19.02;;;10.35;;
85705;SDS011;76142;52.376;9.712;2024-01-30T00:46:36;18.63;;;10.45;;
85705;SDS011;76142;52.376;9.712;2024-01-30T00:49:02;22.75;;;11.30;;
85705;SDS011;76142;52.376;9.712;2024-01-30T00:51:29;16.35;;;10.00;;
85705;SDS011;76142;52.376;9.712;2024-01-30T00:53:55;21.85;;;11.50;;
85705;SDS011;76142;52.376;9.712;2024-01-30T00:56:21;17.20;;;9.98;;
85705;SDS011;76142;52.376;9.712;2024-01-30T00:58:47;24.30;;;11.32;;
85705;SDS011;76142;52.376;9.712;2024-01-30T01:01:13;19.67;;;10.85;;
85705;SDS011;76142;52.376;9.712;2024-01-30T01:03:39;22.38;;;10.40;;
85705;SDS011;76142;52.376;9.712;2024-01-30T01:06:06;18.25;;;10.77;;
85705;SDS011;76142;52.376;9.712;2024-01-30T01:08:32;23.98;;;11.43;;
85705;SDS011;76142;52.376;9.712;2024-01-30T01:10:58;20.23;;;11.05;;
85705;SDS011;76142;52.376;9.712;2024-01-30T01:13:23;28.58;;;11.63;;
85705;SDS011;76142;52.376;9.712;2024-01-30T01:15:49;21.20;;;11.32;;
85705;SDS011;76142;52.376;9.712;2024-01-30T01:18:15;21.25;;;11.25;;
85705;SDS011;76142;52.376;9.712;2024-01-30T01:20:40;19.73;;;11.20;;
85705;SDS011;76142;52.376;9.712;2024-01-30T01:23:06;19.90;;;11.48;;
85705;SDS011;76142;52.376;9.712;2024-01-30T01:25:32;20.52;;;10.38;;
85705;SDS011;76142;52.376;9.712;2024-01-30T01:27:58;20.88;;;11.60;;
85705;SDS011;76142;52.376;9.712;2024-01-30T01:30:26;23.42;;;11.80;;
85705;SDS011;76142;52.376;9.712;2024-01-30T01:32:54;21.65;;;11.60;;
85705;SDS011;76142;52.376;9.712;2024-01-30T01:35:24;22.77;;;12.57;;
85705;SDS011;76142;52.376;9.712;2024-01-30T01:37:51;22.90;;;11.40;;
85705;SDS011;76142;52.376;9.712;2024-01-30T01:40:20;21.30;;;11.23;;
85705;SDS011;76142;52.376;9.712;2024-01-30T01:42:47;20.38;;;11.65;;
85705;SDS011;76142;52.376;9.712;2024-01-30T01:45:16;23.75;;;11.90;;
85705;SDS011;76142;52.376;9.712;2024-01-30T01:47:41;22.95;;;11.20;;
85705;SDS011;76142;52.376;9.712;2024-01-30T01:50:08;22.35;;;11.50;;
85705;SDS011;76142;52.376;9.712;2024-01-30T01:52:35;24.75;;;12.57;;
85705;SDS011;76142;52.376;9.712;2024-01-30T01:55:02;24.30;;;11.73;;
85705;SDS011;76142;52.376;9.712;2024-01-30T01:57:28;21.70;;;12.05;;
85705;SDS011;76142;52.376;9.712;2024-01-30T01:59:55;24.20;;;12.50;;
85705;SDS011;76142;52.376;9.712;2024-01-30T02:02:22;21.88;;;11.93;;
85705;SDS011;76142;52.376;9.712;2024-01-30T02:04:51;22.92;;;12.35;;
85705;SDS011;76142;52.376;9.712;2024-01-30T02:07:17;23.13;;;11.80;;
85705;SDS011;76142;52.376;9.712;2024-01-30T02:09:43;22.15;;;12.15;;
85705;SDS011;76142;52.376;9.712;2024-01-30T02:12:09;23.67;;;11.85;;
85705;SDS011;76142;52.376;9.712;2024-01-30T02:14:43;27.25;;;12.40;;
85705;SDS011;76142;52.376;9.712;2024-01-30T02:17:13;22.05;;;12.20;;
85705;SDS011;76142;52.376;9.712;2024-01-30T02:19:41;22.52;;;12.48;;
85705;SDS011;76142;52.376;9.712;2024-01-30T02:22:07;24.50;;;12.18;;
85705;SDS011;76142;52.376;9.712;2024-01-30T02:24:34;22.70;;;11.80;;
85705;SDS011;76142;52.376;9.712;2024-01-30T02:27:00;22.45;;;11.65;;
85705;SDS011;76142;52.376;9.712;2024-01-30T02:29:25;21.13;;;11.77;;
85705;SDS011;76142;52.376;9.712;2024-01-30T02:31:51;26.08;;;13.02;;
85705;SDS011;76142;52.376;9.712;2024-01-30T02:34:18;26.88;;;12.93;;
85705;SDS011;76142;52.376;9.712;2024-01-30T02:36:44;21.00;;;11.52;;
85705;SDS011;76142;52.376;9.712;2024-01-30T02:39:10;18.90;;;11.23;;
85705;SDS011;76142;52.376;9.712;2024-01-30T02:41:36;23.38;;;11.90;;
85705;SDS011;76142;52.376;9.712;2024-01-30T02:44:02;23.70;;;11.73;;
85705;SDS011;76142;52.376;9.712;2024-01-30T02:46:29;27.75;;;12.30;;
85705;SDS011;76142;52.376;9.712;2024-01-30T02:48:54;22.65;;;11.82;;
85705;SDS011;76142;52.376;9.712;2024-01-30T02:51:20;21.52;;;11.80;;
85705;SDS011;76142;52.376;9.712;2024-01-30T02:53:46;22.60;;;11.43;;
85705;SDS011;76142;52.376;9.712;2024-01-30T02:56:12;25.55;;;12.00;;
85705;SDS011;76142;52.376;9.712;2024-01-30T02:58:41;20.80;;;11.60;;
85705;SDS011;76142;52.376;9.712;2024-01-30T03:01:07;25.85;;;12.65;;
85705;SDS011;76142;52.376;9.712;2024-01-30T03:03:33;22.98;;;11.77;;
85705;SDS011;76142;52.376;9.712;2024-01-30T03:06:01;21.27;;;11.82;;
85705;SDS011;76142;52.376;9.712;2024-01-30T03:08:27;22.63;;;12.40;;
85705;SDS011;76142;52.376;9.712;2024-01-30T03:10:53;21.80;;;11.50;;
85705;SDS011;76142;52.376;9.712;2024-01-30T03:13:19;23.45;;;12.60;;
85705;SDS011;76142;52.376;9.712;2024-01-30T03:15:45;24.20;;;12.15;;
85705;SDS011;76142;52.376;9.712;2024-01-30T03:18:11;23.13;;;12.30;;
85705;SDS011;76142;52.376;9.712;2024-01-30T03:20:37;25.98;;;12.25;;
85705;SDS011;76142;52.376;9.712;2024-01-30T03:23:03;25.35;;;12.52;;
85705;SDS011;76142;52.376;9.712;2024-01-30T03:25:30;23.05;;;12.40;;
85705;SDS011;76142;52.376;9.712;2024-01-30T03:27:56;22.48;;;12.10;;
85705;SDS011;76142;52.376;9.712;2024-01-30T03:30:22;21.25;;;11.85;;
85705;SDS011;76142;52.376;9.712;2024-01-30T03:32:48;22.98;;;11.85;;
85705;SDS011;76142;52.376;9.712;2024-01-30T03:35:14;25.67;;;12.05;;
85705;SDS011;76142;52.376;9.712;2024-01-30T03:37:40;24.55;;;11.50;;
85705;SDS011;76142;52.376;9.712;2024-01-30T03:40:06;19.00;;;11.00;;
85705;SDS011;76142;52.376;9.712;2024-01-30T03:42:32;23.25;;;11.63;;
85705;SDS011;76142;52.376;9.712;2024-01-30T03:44:57;24.85;;;12.30;;
85705;SDS011;76142;52.376;9.712;2024-01-30T03:47:23;25.17;;;12.50;;
85705;SDS011;76142;52.376;9.712;2024-01-30T03:49:48;21.17;;;11.27;;
85705;SDS011;76142;52.376;9.712;2024-01-30T03:52:14;20.35;;;11.90;;
85705;SDS011;76142;52.376;9.712;2024-01-30T03:54:40;23.95;;;11.60;;
85705;SDS011;76142;52.376;9.712;2024-01-30T03:57:06;18.77;;;10.60;;
85705;SDS011;76142;52.376;9.712;2024-01-30T03:59:32;22.00;;;11.65;;
85705;SDS011;76142;52.376;9.712;2024-01-30T04:01:57;21.38;;;11.50;;
85705;SDS011;76142;52.376;9.712;2024-01-30T04:04:25;23.13;;;12.07;;
85705;SDS011;76142;52.376;9.712;2024-01-30T04:06:50;18.80;;;11.25;;
85705;SDS011;76142;52.376;9.712;2024-01-30T04:09:16;19.98;;;10.70;;
85705;SDS011;76142;52.376;9.712;2024-01-30T04:11:42;24.98;;;12.00;;
85705;SDS011;76142;52.376;9.712;2024-01-30T04:14:08;19.42;;;10.80;;
85705;SDS011;76142;52.376;9.712;2024-01-30T04:16:34;24.70;;;10.98;;
85705;SDS011;76142;52.376;9.712;2024-01-30T04:19:00;21.23;;;10.85;;
85705;SDS011;76142;52.376;9.712;2024-01-30T04:21:25;22.60;;;11.52;;
85705;SDS011;76142;52.376;9.712;2024-01-30T04:23:51;20.45;;;11.23;;
85705;SDS011;76142;52.376;9.712;2024-01-30T04:26:17;23.63;;;11.13;;
85705;SDS011;76142;52.376;9.712;2024-01-30T04:28:44;19.35;;;11.15;;
85705;SDS011;76142;52.376;9.712;2024-01-30T04:31:10;23.63;;;11.52;;
85705;SDS011;76142;52.376;9.712;2024-01-30T04:33:36;21.77;;;12.25;;
85705;SDS011;76142;52.376;9.712;2024-01-30T04:36:02;21.45;;;11.85;;
85705;SDS011;76142;52.376;9.712;2024-01-30T04:38:28;21.23;;;11.43;;
85705;SDS011;76142;52.376;9.712;2024-01-30T04:40:54;24.08;;;11.65;;
85705;SDS011;76142;52.376;9.712;2024-01-30T04:43:20;21.83;;;11.75;;
85705;SDS011;76142;52.376;9.712;2024-01-30T04:45:46;22.05;;;11.65;;
85705;SDS011;76142;52.376;9.712;2024-01-30T04:48:12;19.58;;;10.75;;
85705;SDS011;76142;52.376;9.712;2024-01-30T04:50:39;20.60;;;11.40;;
85705;SDS011;76142;52.376;9.712;2024-01-30T04:53:05;22.95;;;11.60;;
85705;SDS011;76142;52.376;9.712;2024-01-30T04:55:30;20.10;;;11.00;;
85705;SDS011;76142;52.376;9.712;2024-01-30T04:57:56;25.60;;;10.52;;
85705;SDS011;76142;52.376;9.712;2024-01-30T05:00:22;22.48;;;11.55;;
85705;SDS011;76142;52.376;9.712;2024-01-30T05:02:48;20.65;;;11.70;;
85705;SDS011;76142;52.376;9.712;2024-01-30T05:05:13;20.73;;;11.68;;
85705;SDS011;76142;52.376;9.712;2024-01-30T05:07:41;18.65;;;11.07;;
85705;SDS011;76142;52.376;9.712;2024-01-30T05:10:06;19.63;;;10.68;;
85705;SDS011;76142;52.376;9.712;2024-01-30T05:12:33;19.52;;;10.85;;
85705;SDS011;76142;52.376;9.712;2024-01-30T05:14:59;20.08;;;10.70;;
85705;SDS011;76142;52.376;9.712;2024-01-30T05:17:25;22.70;;;11.07;;
85705;SDS011;76142;52.376;9.712;2024-01-30T05:19:50;18.85;;;10.80;;
85705;SDS011;76142;52.376;9.712;2024-01-30T05:22:16;19.67;;;11.32;;
85705;SDS011;76142;52.376;9.712;2024-01-30T05:24:43;21.58;;;11.02;;
85705;SDS011;76142;52.376;9.712;2024-01-30T05:27:09;17.02;;;10.48;;
85705;SDS011;76142;52.376;9.712;2024-01-30T05:29:35;18.05;;;9.95;;
85705;SDS011;76142;52.376;9.712;2024-01-30T05:32:00;17.25;;;10.32;;
85705;SDS011;76142;52.376;9.712;2024-01-30T05:34:27;21.20;;;10.43;;
85705;SDS011;76142;52.376;9.712;2024-01-30T05:36:53;16.85;;;10.13;;
85705;SDS011;76142;52.376;9.712;2024-01-30T05:39:19;23.25;;;10.73;;
85705;SDS011;76142;52.376;9.712;2024-01-30T05:41:45;19.23;;;10.30;;
85705;SDS011;76142;52.376;9.712;2024-01-30T05:44:10;22.73;;;10.88;;
85705;SDS011;76142;52.376;9.712;2024-01-30T05:46:36;20.20;;;10.40;;
85705;SDS011;76142;52.376;9.712;2024-01-30T05:49:01;19.95;;;10.02;;
85705;SDS011;76142;52.376;9.712;2024-01-30T05:51:28;20.20;;;10.68;;
85705;SDS011;76142;52.376;9.712;2024-01-30T05:53:54;19.77;;;10.68;;
85705;SDS011;76142;52.376;9.712;2024-01-30T05:56:20;16.98;;;10.18;;
85705;SDS011;76142;52.376;9.712;2024-01-30T05:58:45;21.15;;;10.30;;
85705;SDS011;76142;52.376;9.712;2024-01-30T06:01:11;21.55;;;11.02;;
85705;SDS011;76142;52.376;9.712;2024-01-30T06:03:37;21.92;;;10.98;;
85705;SDS011;76142;52.376;9.712;2024-01-30T06:06:03;19.08;;;11.55;;
85705;SDS011;76142;52.376;9.712;2024-01-30T06:08:29;20.30;;;10.82;;
85705;SDS011;76142;52.376;9.712;2024-01-30T06:10:55;22.73;;;11.10;;
85705;SDS011;76142;52.376;9.712;2024-01-30T06:13:20;20.25;;;10.95;;
85705;SDS011;76142;52.376;9.712;2024-01-30T06:15:46;18.13;;;10.73;;
85705;SDS011;76142;52.376;9.712;2024-01-30T06:18:12;20.77;;;11.32;;
85705;SDS011;76142;52.376;9.712;2024-01-30T06:20:37;20.40;;;10.98;;
85705;SDS011;76142;52.376;9.712;2024-01-30T06:23:03;19.33;;;10.07;;
85705;SDS011;76142;52.376;9.712;2024-01-30T06:25:29;22.50;;;11.32;;
85705;SDS011;76142;52.376;9.712;2024-01-30T06:27:54;24.58;;;10.70;;
85705;SDS011;76142;52.376;9.712;2024-01-30T06:30:20;21.17;;;10.35;;
85705;SDS011;76142;52.376;9.712;2024-01-30T06:32:46;20.33;;;11.40;;
85705;SDS011;76142;52.376;9.712;2024-01-30T06:35:11;20.42;;;10.60;;
85705;SDS011;76142;52.376;9.712;2024-01-30T06:37:37;23.33;;;11.27;;
85705;SDS011;76142;52.376;9.712;2024-01-30T06:40:03;20.90;;;10.50;;
85705;SDS011;76142;52.376;9.712;2024-01-30T06:42:30;23.73;;;10.75;;
85705;SDS011;76142;52.376;9.712;2024-01-30T06:44:56;25.15;;;11.80;;
85705;SDS011;76142;52.376;9.712;2024-01-30T06:47:21;19.15;;;10.88;;
85705;SDS011;76142;52.376;9.712;2024-01-30T06:49:47;19.83;;;10.77;;
85705;SDS011;76142;52.376;9.712;2024-01-30T06:52:12;25.70;;;11.98;;
85705;SDS011;76142;52.376;9.712;2024-01-30T06:54:39;28.08;;;11.50;;
85705;SDS011;76142;52.376;9.712;2024-01-30T06:57:04;25.38;;;11.38;;
85705;SDS011;76142;52.376;9.712;2024-01-30T06:59:34;22.08;;;11.57;;
85705;SDS011;76142;52.376;9.712;2024-01-30T07:01:59;18.70;;;11.23;;
85705;SDS011;76142;52.376;9.712;2024-01-30T07:04:25;20.60;;;10.93;;
85705;SDS011;76142;52.376;9.712;2024-01-30T07:06:51;21.58;;;10.65;;
85705;SDS011;76142;52.376;9.712;2024-01-30T07:09:18;22.00;;;11.35;;
85705;SDS011;76142;52.376;9.712;2024-01-30T07:11:43;20.60;;;10.63;;
85705;SDS011;76142;52.376;9.712;2024-01-30T07:14:09;18.85;;;10.57;;
85705;SDS011;76142;52.376;9.712;2024-01-30T07:16:35;20.00;;;11.10;;
85705;SDS011;76142;52.376;9.712;2024-01-30T07:19:01;21.92;;;11.68;;
85705;SDS011;76142;52.376;9.712;2024-01-30T07:21:27;21.30;;;11.55;;
85705;SDS011;76142;52.376;9.712;2024-01-30T07:23:56;25.13;;;11.82;;
85705;SDS011;76142;52.376;9.712;2024-01-30T07:26:22;26.35;;;12.60;;
85705;SDS011;76142;52.376;9.712;2024-01-30T07:28:48;22.17;;;12.13;;
85705;SDS011;76142;52.376;9.712;2024-01-30T07:31:15;24.52;;;12.18;;
85705;SDS011;76142;52.376;9.712;2024-01-30T07:33:40;23.45;;;11.68;;
85705;SDS011;76142;52.376;9.712;2024-01-30T07:36:06;21.95;;;10.80;;
85705;SDS011;76142;52.376;9.712;2024-01-30T07:38:33;21.73;;;10.85;;
85705;SDS011;76142;52.376;9.712;2024-01-30T07:40:59;20.23;;;11.30;;
85705;SDS011;76142;52.376;9.712;2024-01-30T07:43:24;17.95;;;10.38;;
85705;SDS011;76142;52.376;9.712;2024-01-30T07:45:50;21.05;;;10.45;;
85705;SDS011;76142;52.376;9.712;2024-01-30T07:48:16;23.42;;;10.73;;
85705;SDS011;76142;52.376;9.712;2024-01-30T07:50:42;22.65;;;10.70;;
85705;SDS011;76142;52.376;9.712;2024-01-30T07:53:07;18.15;;;10.32;;
85705;SDS011;76142;52.376;9.712;2024-01-30T07:55:35;65.00;;;26.95;;
85705;SDS011;76142;52.376;9.712;2024-01-30T07:58:01;50.92;;;22.17;;
85705;SDS011;76142;52.376;9.712;2024-01-30T08:00:27;69.28;;;28.95;;
85705;SDS011;76142;52.376;9.712;2024-01-30T08:02:54;25.42;;;14.05;;
85705;SDS011;76142;52.376;9.712;2024-01-30T08:05:20;21.08;;;11.68;;
85705;SDS011;76142;52.376;9.712;2024-01-30T08:07:48;19.13;;;9.98;;
85705;SDS011;76142;52.376;9.712;2024-01-30T08:10:14;17.92;;;10.05;;
85705;SDS011;76142;52.376;9.712;2024-01-30T08:12:41;17.55;;;9.85;;
85705;SDS011;76142;52.376;9.712;2024-01-30T08:15:07;18.77;;;10.18;;
85705;SDS011;76142;52.376;9.712;2024-01-30T08:17:33;18.98;;;10.25;;
85705;SDS011;76142;52.376;9.712;2024-01-30T08:19:59;22.10;;;10.23;;
85705;SDS011;76142;52.376;9.712;2024-01-30T08:22:24;18.05;;;10.27;;
85705;SDS011;76142;52.376;9.712;2024-01-30T08:24:50;19.00;;;10.40;;
85705;SDS011;76142;52.376;9.712;2024-01-30T08:27:16;20.15;;;10.45;;
85705;SDS011;76142;52.376;9.712;2024-01-30T08:29:41;19.98;;;9.95;;
85705;SDS011;76142;52.376;9.712;2024-01-30T08:32:07;19.75;;;9.98;;
85705;SDS011;76142;52.376;9.712;2024-01-30T08:34:33;21.23;;;10.48;;
85705;SDS011;76142;52.376;9.712;2024-01-30T08:36:59;19.73;;;10.48;;
85705;SDS011;76142;52.376;9.712;2024-01-30T08:39:24;23.42;;;10.88;;
85705;SDS011;76142;52.376;9.712;2024-01-30T08:41:50;20.52;;;9.52;;
85705;SDS011;76142;52.376;9.712;2024-01-30T08:44:16;22.75;;;10.93;;
85705;SDS011;76142;52.376;9.712;2024-01-30T08:46:43;16.52;;;9.82;;
85705;SDS011;76142;52.376;9.712;2024-01-30T08:49:11;20.80;;;10.48;;
85705;SDS011;76142;52.376;9.712;2024-01-30T08:51:38;17.60;;;10.15;;
85705;SDS011;76142;52.376;9.712;2024-01-30T08:54:04;22.38;;;10.25;;
85705;SDS011;76142;52.376;9.712;2024-01-30T08:56:30;18.73;;;10.13;;
85705;SDS011;76142;52.376;9.712;2024-01-30T08:58:56;18.92;;;9.95;;
85705;SDS011;76142;52.376;9.712;2024-01-30T09:01:21;19.65;;;10.50;;
85705;SDS011;76142;52.376;9.712;2024-01-30T09:03:47;17.27;;;10.02;;
85705;SDS011;76142;52.376;9.712;2024-01-30T09:06:13;20.70;;;10.00;;
85705;SDS011;76142;52.376;9.712;2024-01-30T09:08:38;21.75;;;10.15;;
85705;SDS011;76142;52.376;9.712;2024-01-30T09:11:13;17.23;;;9.80;;
85705;SDS011;76142;52.376;9.712;2024-01-30T09:13:40;17.95;;;10.25;;
85705;SDS011;76142;52.376;9.712;2024-01-30T09:16:06;17.65;;;9.75;;
85705;SDS011;76142;52.376;9.712;2024-01-30T09:18:32;23.90;;;11.45;;
85705;SDS011;76142;52.376;9.712;2024-01-30T09:20:58;22.95;;;10.88;;
85705;SDS011;76142;52.376;9.712;2024-01-30T09:23:24;18.13;;;10.30;;
85705;SDS011;76142;52.376;9.712;2024-01-30T09:25:50;18.15;;;10.43;;
85705;SDS011;76142;52.376;9.712;2024-01-30T09:28:17;15.45;;;9.43;;
85705;SDS011;76142;52.376;9.712;2024-01-30T09:30:43;17.60;;;9.73;;
85705;SDS011;76142;52.376;9.712;2024-01-30T09:33:08;18.15;;;9.32;;
85705;SDS011;76142;52.376;9.712;2024-01-30T09:35:34;22.73;;;9.07;;
85705;SDS011;76142;52.376;9.712;2024-01-30T09:38:01;17.90;;;9.40;;
85705;SDS011;76142;52.376;9.712;2024-01-30T09:40:27;19.00;;;9.48;;
85705;SDS011;76142;52.376;9.712;2024-01-30T09:42:53;19.45;;;9.82;;
85705;SDS011;76142;52.376;9.712;2024-01-30T09:45:23;17.80;;;8.95;;
85705;SDS011;76142;52.376;9.712;2024-01-30T09:47:50;18.40;;;9.60;;
85705;SDS011;76142;52.376;9.712;2024-01-30T09:50:15;20.83;;;9.35;;
85705;SDS011;76142;52.376;9.712;2024-01-30T09:52:45;14.07;;;8.88;;
85705;SDS011;76142;52.376;9.712;2024-01-30T09:55:12;20.42;;;8.90;;
85705;SDS011;76142;52.376;9.712;2024-01-30T09:57:37;14.40;;;8.80;;
85705;SDS011;76142;52.376;9.712;2024-01-30T10:00:04;15.10;;;9.15;;
85705;SDS011;76142;52.376;9.712;2024-01-30T10:02:33;15.50;;;8.98;;
85705;SDS011;76142;52.376;9.712;2024-01-30T10:04:59;19.02;;;8.88;;
85705;SDS011;76142;52.376;9.712;2024-01-30T10:07:25;18.23;;;8.75;;
85705;SDS011;76142;52.376;9.712;2024-01-30T10:09:52;19.83;;;9.77;;
85705;SDS011;76142;52.376;9.712;2024-01-30T10:12:18;20.40;;;9.77;;
85705;SDS011;76142;52.376;9.712;2024-01-30T10:14:44;18.83;;;9.80;;
85705;SDS011;76142;52.376;9.712;2024-01-30T10:17:10;15.43;;;8.95;;
85705;SDS011;76142;52.376;9.712;2024-01-30T10:19:40;17.75;;;9.18;;
85705;SDS011;76142;52.376;9.712;2024-01-30T10:22:06;20.05;;;9.13;;
85705;SDS011;76142;52.376;9.712;2024-01-30T10:24:35;15.82;;;8.93;;
85705;SDS011;76142;52.376;9.712;2024-01-30T10:27:01;15.20;;;9.20;;
85705;SDS011;76142;52.376;9.712;2024-01-30T10:29:28;17.95;;;8.85;;
85705;SDS011;76142;52.376;9.712;2024-01-30T10:32:04;17.23;;;8.82;;
85705;SDS011;76142;52.376;9.712;2024-01-30T10:34:30;15.25;;;8.60;;
85705;SDS011;76142;52.376;9.712;2024-01-30T10:37:05;18.20;;;8.75;;
85705;SDS011;76142;52.376;9.712;2024-01-30T10:39:42;18.08;;;8.75;;
85705;SDS011;76142;52.376;9.712;2024-01-30T10:42:13;14.48;;;8.60;;
85705;SDS011;76142;52.376;9.712;2024-01-30T10:50:22;15.45;;;8.40;;
85705;SDS011;76142;52.376;9.712;2024-01-30T10:52:53;18.17;;;9.13;;
85705;SDS011;76142;52.376;9.712;2024-01-30T10:55:20;16.33;;;8.98;;
85705;SDS011;76142;52.376;9.712;2024-01-30T10:57:48;19.88;;;8.57;;
85705;SDS011;76142;52.376;9.712;2024-01-30T11:00:14;18.60;;;9.48;;
85705;SDS011;76142;52.376;9.712;2024-01-30T11:02:44;19.17;;;8.95;;
85705;SDS011;76142;52.376;9.712;2024-01-30T11:05:11;18.95;;;8.60;;
85705;SDS011;76142;52.376;9.712;2024-01-30T11:07:38;19.83;;;9.05;;
85705;SDS011;76142;52.376;9.712;2024-01-30T11:10:07;19.90;;;9.18;;
85705;SDS011;76142;52.376;9.712;2024-01-30T11:12:38;16.15;;;9.20;;
85705;SDS011;76142;52.376;9.712;2024-01-30T11:15:14;16.67;;;9.52;;
85705;SDS011;76142;52.376;9.712;2024-01-30T11:17:45;14.77;;;8.57;;
85705;SDS011;76142;52.376;9.712;2024-01-30T11:22:46;16.20;;;8.98;;
85705;SDS011;76142;52.376;9.712;2024-01-30T11:25:13;21.40;;;9.85;;
85705;SDS011;76142;52.376;9.712;2024-01-30T11:27:41;15.90;;;9.15;;
85705;SDS011;76142;52.376;9.712;2024-01-30T11:30:07;16.23;;;8.57;;
85705;SDS011;76142;52.376;9.712;2024-01-30T11:32:33;16.67;;;9.00;;
85705;SDS011;76142;52.376;9.712;2024-01-30T11:34:59;20.38;;;8.60;;
85705;SDS011;76142;52.376;9.712;2024-01-30T11:37:25;15.10;;;8.57;;
85705;SDS011;76142;52.376;9.712;2024-01-30T11:39:54;17.58;;;9.05;;
85705;SDS011;76142;52.376;9.712;2024-01-30T11:42:22;23.55;;;9.32;;
85705;SDS011;76142;52.376;9.712;2024-01-30T11:44:52;21.10;;;9.60;;
85705;SDS011;76142;52.376;9.712;2024-01-30T11:47:18;20.35;;;9.38;;
85705;SDS011;76142;52.376;9.712;2024-01-30T11:49:44;15.50;;;8.55;;
85705;SDS011;76142;52.376;9.712;2024-01-30T11:52:10;14.20;;;7.82;;
85705;SDS011;76142;52.376;9.712;2024-01-30T11:54:38;14.82;;;8.27;;
85705;SDS011;76142;52.376;9.712;2024-01-30T11:57:05;18.15;;;8.95;;
85705;SDS011;76142;52.376;9.712;2024-01-30T11:59:30;17.58;;;8.88;;
85705;SDS011;76142;52.376;9.712;2024-01-30T12:01:56;17.25;;;9.02;;
85705;SDS011;76142;52.376;9.712;2024-01-30T12:04:22;17.15;;;9.00;;
85705;SDS011;76142;52.376;9.712;2024-01-30T12:06:50;17.27;;;8.98;;
85705;SDS011;76142;52.376;9.712;2024-01-30T12:09:16;20.42;;;9.27;;
85705;SDS011;76142;52.376;9.712;2024-01-30T12:11:45;15.90;;;8.23;;
85705;SDS011;76142;52.376;9.712;2024-01-30T12:14:12;20.88;;;8.65;;
85705;SDS011;76142;52.376;9.712;2024-01-30T12:16:39;16.10;;;8.40;;
85705;SDS011;76142;52.376;9.712;2024-01-30T12:19:06;18.70;;;8.90;;
85705;SDS011;76142;52.376;9.712;2024-01-30T12:21:33;14.00;;;8.15;;
85705;SDS011;76142;52.376;9.712;2024-01-30T12:23:59;18.73;;;8.32;;
85705;SDS011;76142;52.376;9.712;2024-01-30T12:26:25;16.92;;;8.43;;
85705;SDS011;76142;52.376;9.712;2024-01-30T12:28:55;15.43;;;7.82;;
85705;SDS011;76142;52.376;9.712;2024-01-30T12:31:26;16.27;;;8.02;;
85705;SDS011;76142;52.376;9.712;2024-01-30T12:33:53;19.05;;;8.45;;
85705;SDS011;76142;52.376;9.712;2024-01-30T12:36:18;14.15;;;8.05;;
85705;SDS011;76142;52.376;9.712;2024-01-30T12:38:44;15.02;;;7.72;;
85705;SDS011;76142;52.376;9.712;2024-01-30T12:41:10;15.20;;;7.90;;
85705;SDS011;76142;52.376;9.712;2024-01-30T12:43:36;14.15;;;7.38;;
85705;SDS011;76142;52.376;9.712;2024-01-30T12:46:02;15.20;;;7.60;;
85705;SDS011;76142;52.376;9.712;2024-01-30T12:48:28;14.00;;;7.22;;
85705;SDS011;76142;52.376;9.712;2024-01-30T12:50:55;15.07;;;8.73;;
85705;SDS011;76142;52.376;9.712;2024-01-30T12:53:21;14.25;;;7.35;;
85705;SDS011;76142;52.376;9.712;2024-01-30T12:55:47;14.98;;;7.95;;
85705;SDS011;76142;52.376;9.712;2024-01-30T12:58:14;14.70;;;7.97;;
85705;SDS011;76142;52.376;9.712;2024-01-30T13:00:40;12.52;;;7.50;;
85705;SDS011;76142;52.376;9.712;2024-01-30T13:03:08;15.65;;;8.27;;
85705;SDS011;76142;52.376;9.712;2024-01-30T13:05:35;12.70;;;8.18;;
85705;SDS011;76142;52.376;9.712;2024-01-30T13:08:00;16.27;;;8.18;;
85705;SDS011;76142;52.376;9.712;2024-01-30T13:10:26;14.35;;;7.97;;
85705;SDS011;76142;52.376;9.712;2024-01-30T13:12:52;14.85;;;8.35;;
85705;SDS011;76142;52.376;9.712;2024-01-30T13:15:18;17.17;;;7.85;;
85705;SDS011;76142;52.376;9.712;2024-01-30T13:17:44;22.20;;;9.20;;
85705;SDS011;76142;52.376;9.712;2024-01-30T13:20:12;13.80;;;7.43;;
85705;SDS011;76142;52.376;9.712;2024-01-30T13:22:42;15.68;;;7.88;;
85705;SDS011;76142;52.376;9.712;2024-01-30T13:25:09;22.25;;;8.75;;
85705;SDS011;76142;52.376;9.712;2024-01-30T13:27:35;18.58;;;8.65;;
85705;SDS011;76142;52.376;9.712;2024-01-30T13:30:02;15.48;;;7.78;;
85705;SDS011;76142;52.376;9.712;2024-01-30T13:32:29;15.45;;;7.70;;
85705;SDS011;76142;52.376;9.712;2024-01-30T13:34:54;16.45;;;7.72;;
85705;SDS011;76142;52.376;9.712;2024-01-30T13:37:21;15.25;;;7.28;;
85705;SDS011;76142;52.376;9.712;2024-01-30T13:39:47;14.30;;;7.82;;
85705;SDS011;76142;52.376;9.712;2024-01-30T13:42:13;13.45;;;7.22;;
85705;SDS011;76142;52.376;9.712;2024-01-30T13:44:39;21.30;;;9.30;;
85705;SDS011;76142;52.376;9.712;2024-01-30T13:47:05;16.88;;;8.90;;
85705;SDS011;76142;52.376;9.712;2024-01-30T13:49:30;16.20;;;8.48;;
85705;SDS011;76142;52.376;9.712;2024-01-30T13:51:56;16.77;;;8.20;;
85705;SDS011;76142;52.376;9.712;2024-01-30T13:54:23;18.02;;;9.93;;
85705;SDS011;76142;52.376;9.712;2024-01-30T13:56:49;23.70;;;10.07;;
85705;SDS011;76142;52.376;9.712;2024-01-30T13:59:15;20.45;;;10.35;;
85705;SDS011;76142;52.376;9.712;2024-01-30T14:01:46;17.60;;;9.20;;
85705;SDS011;76142;52.376;9.712;2024-01-30T14:04:11;18.20;;;9.25;;
85705;SDS011;76142;52.376;9.712;2024-01-30T14:06:39;18.15;;;9.65;;
85705;SDS011;76142;52.376;9.712;2024-01-30T14:09:05;17.52;;;8.73;;
85705;SDS011;76142;52.376;9.712;2024-01-30T14:11:32;19.50;;;10.25;;
85705;SDS011;76142;52.376;9.712;2024-01-30T14:16:40;20.25;;;10.23;;
85705;SDS011;76142;52.376;9.712;2024-01-30T14:19:05;22.10;;;10.68;;
85705;SDS011;76142;52.376;9.712;2024-01-30T14:21:31;18.63;;;10.18;;
85705;SDS011;76142;52.376;9.712;2024-01-30T14:23:57;19.58;;;10.68;;
85705;SDS011;76142;52.376;9.712;2024-01-30T14:26:23;22.92;;;10.15;;
85705;SDS011;76142;52.376;9.712;2024-01-30T14:28:48;20.23;;;10.00;;
85705;SDS011;76142;52.376;9.712;2024-01-30T14:31:14;21.52;;;9.45;;